Time;durP1;ratioP1;P1;durP2;ratioP2;P2;SDS_P1;SDS_P2;PMS_P1;PMS_P2;Temp;Humidity;BMP_temperature;BMP_pressure;BME280_temperature;BME280_humidity;BME280_pressure;Samples;Min_cycle;Max_cycle;Signal;HPM_P1;HPM_P2
2022/12/13 00:01:38;;;;;;;67.05;34.63;;;-3.90;99.90;;;;;;5138272;27;20524;-40
2022/12/13 00:04:06;;;;;;;56.88;29.80;;;-3.90;99.90;;;;;;5139611;27;20138;-42
2022/12/13 00:06:33;;;;;;;50.22;27.65;;;-4.00;99.90;;;;;;5102134;27;20541;-41
2022/12/13 00:09:00;;;;;;;60.55;32.13;;;-4.00;99.90;;;;;;5120119;27;20054;-41
2022/12/13 00:11:26;;;;;;;57.70;30.98;;;-4.00;99.90;;;;;;5117575;27;20055;-41
2022/12/13 00:13:52;;;;;;;54.10;31.73;;;-4.00;99.90;;;;;;5118548;27;20059;-41
2022/12/13 00:16:23;;;;;;;52.95;28.98;;;-4.00;99.90;;;;;;5131699;27;20046;-42
2022/12/13 00:18:54;;;;;;;58.00;30.67;;;-4.00;99.90;;;;;;5132280;27;20088;-42
2022/12/13 00:21:22;;;;;;;51.35;26.83;;;-4.00;99.90;;;;;;5131565;27;20460;-42
2022/12/13 00:23:48;;;;;;;55.40;27.88;;;-4.00;99.90;;;;;;5118553;27;20054;-41
2022/12/13 00:26:19;;;;;;;53.55;29.20;;;-4.00;99.90;;;;;;5120421;27;20050;-41
2022/12/13 00:28:46;;;;;;;54.83;29.70;;;-4.00;99.90;;;;;;5118664;27;20046;-43
2022/12/13 00:31:12;;;;;;;54.63;29.42;;;-4.10;99.90;;;;;;5117644;27;20043;-41
2022/12/13 00:33:38;;;;;;;51.03;27.35;;;-4.10;99.90;;;;;;5130815;27;20057;-41
2022/12/13 00:36:05;;;;;;;49.80;27.63;;;-4.10;99.90;;;;;;5117895;27;20047;-42
2022/12/13 00:38:31;;;;;;;49.13;27.35;;;-4.00;99.90;;;;;;5099749;27;20561;-45
2022/12/13 00:40:56;;;;;;;51.13;26.58;;;-4.00;99.90;;;;;;5118220;27;20466;-42
2022/12/13 00:43:22;;;;;;;52.58;27.63;;;-4.00;99.90;;;;;;5130100;27;20046;-40
2022/12/13 00:45:47;;;;;;;51.47;28.60;;;-4.00;99.90;;;;;;5117874;27;20499;-42
2022/12/13 00:48:13;;;;;;;55.33;28.80;;;-4.10;99.90;;;;;;5117418;27;20043;-41
2022/12/13 00:50:39;;;;;;;51.42;29.05;;;-4.10;99.90;;;;;;5118307;27;20047;-41
2022/12/13 00:53:05;;;;;;;42.92;26.63;;;-4.10;99.90;;;;;;5127568;27;20046;-46
2022/12/13 00:55:31;;;;;;;50.88;29.27;;;-4.10;99.90;;;;;;5117646;27;20441;-42
2022/12/13 00:57:57;;;;;;;47.53;27.98;;;-4.10;99.90;;;;;;5123480;27;20055;-40
2022/12/13 01:00:24;;;;;;;57.42;29.88;;;-4.00;99.90;;;;;;5118516;27;20050;-41
2022/12/13 01:02:52;;;;;;;50.45;28.25;;;-4.10;99.90;;;;;;5116673;27;20090;-41
2022/12/13 01:05:17;;;;;;;54.53;28.65;;;-4.10;99.90;;;;;;5126585;27;20038;-42
2022/12/13 01:07:44;;;;;;;49.70;28.58;;;-4.20;99.90;;;;;;5138177;27;20130;-44
2022/12/13 01:10:11;;;;;;;49.40;28.40;;;-4.10;99.90;;;;;;5138281;27;20042;-42
2022/12/13 01:12:37;;;;;;;50.83;27.75;;;-4.10;99.90;;;;;;5129665;27;20445;-43
2022/12/13 01:15:04;;;;;;;49.15;26.77;;;-4.10;99.90;;;;;;5126661;27;20047;-40
2022/12/13 01:17:30;;;;;;;52.03;28.30;;;-4.20;99.90;;;;;;5138065;27;20057;-42
2022/12/13 01:19:56;;;;;;;45.60;25.70;;;-4.10;99.90;;;;;;5128796;27;20066;-42
2022/12/13 01:22:22;;;;;;;49.28;27.20;;;-4.20;99.90;;;;;;5119266;27;20497;-40
2022/12/13 01:24:47;;;;;;;46.67;27.02;;;-4.30;99.90;;;;;;5136920;27;20420;-40
2022/12/13 01:27:13;;;;;;;53.10;28.15;;;-4.20;99.90;;;;;;5123050;27;20416;-40
2022/12/13 01:29:39;;;;;;;48.40;27.02;;;-4.30;99.90;;;;;;5137918;27;20125;-41
2022/12/13 01:32:05;;;;;;;49.60;26.55;;;-4.30;99.90;;;;;;5134044;27;20602;-45
2022/12/13 01:34:30;;;;;;;52.03;27.17;;;-4.20;99.90;;;;;;5126016;27;20219;-44
2022/12/13 01:36:56;;;;;;;52.63;25.33;;;-4.20;99.90;;;;;;5103082;27;20088;-41
2022/12/13 01:39:22;;;;;;;50.60;27.13;;;-4.20;99.90;;;;;;5126218;27;20107;-41
2022/12/13 01:41:51;;;;;;;45.42;26.13;;;-4.30;99.90;;;;;;5119391;27;20054;-41
2022/12/13 01:44:54;;;;;;;47.70;27.05;;;-4.30;99.90;;;;;;5116569;27;20183;-41
2022/12/13 01:47:42;;;;;;;43.80;24.70;;;-4.30;99.90;;;;;;5117009;27;20081;-42
2022/12/13 01:50:15;;;;;;;45.40;25.15;;;-4.30;99.90;;;;;;5116205;27;20043;-41
2022/12/13 01:52:43;;;;;;;47.83;24.10;;;-4.30;99.90;;;;;;5080398;28;20097;-41
2022/12/13 01:55:10;;;;;;;43.35;25.42;;;-4.40;99.90;;;;;;5117242;27;20099;-41
2022/12/13 01:57:39;;;;;;;48.65;24.73;;;-4.40;99.90;;;;;;5128740;27;20054;-44
2022/12/13 02:00:06;;;;;;;45.58;23.92;;;-4.40;99.90;;;;;;5131228;27;20051;-40
2022/12/13 02:02:32;;;;;;;42.58;24.52;;;-4.30;99.90;;;;;;5115774;27;20101;-40
2022/12/13 02:05:18;;;;;;;47.42;25.30;;;-4.30;99.90;;;;;;5112385;28;20521;-41
2022/12/13 02:07:45;;;;;;;48.75;25.90;;;-4.30;99.90;;;;;;5131833;27;20051;-39
2022/12/13 02:10:10;;;;;;;39.85;24.27;;;-4.30;99.90;;;;;;5136798;27;20441;-42
2022/12/13 02:12:38;;;;;;;45.72;24.38;;;-4.30;99.90;;;;;;5126722;27;20072;-41
2022/12/13 02:15:10;;;;;;;45.47;23.77;;;-4.30;99.90;;;;;;5127558;27;20409;-44
2022/12/13 02:17:51;;;;;;;47.22;24.58;;;-4.30;99.90;;;;;;5130216;27;20054;-45
2022/12/13 02:20:45;;;;;;;55.42;28.38;;;-4.30;99.90;;;;;;5129287;27;20081;-41
2022/12/13 02:23:13;;;;;;;;;;;-4.30;99.90;;;;;;5125473;27;20043;-41
2022/12/13 02:25:39;;;;;;;57.33;27.35;;;-4.40;99.90;;;;;;5140281;27;19923;-41
2022/12/13 02:28:12;;;;;;;59.78;26.00;;;-4.40;99.90;;;;;;5141590;27;20051;-39
2022/12/13 02:30:45;;;;;;;56.42;26.65;;;-4.40;99.90;;;;;;5123304;27;20489;-41
2022/12/13 02:33:30;;;;;;;47.40;24.42;;;-4.40;99.90;;;;;;5112493;27;20061;-42
2022/12/13 02:35:59;;;;;;;43.83;22.95;;;-4.40;99.90;;;;;;5113638;27;20043;-41
2022/12/13 02:38:37;;;;;;;41.13;24.85;;;-4.40;99.90;;;;;;5133922;27;20061;-39
2022/12/13 02:41:21;;;;;;;54.13;27.20;;;-4.40;99.90;;;;;;5119860;27;20487;-43
2022/12/13 02:44:16;;;;;;;44.65;23.77;;;-4.40;99.90;;;;;;5119662;27;20088;-42
2022/12/13 02:46:49;;;;;;;48.05;24.75;;;-4.50;99.90;;;;;;5101947;27;20063;-40
2022/12/13 02:49:16;;;;;;;44.95;24.77;;;-4.40;99.90;;;;;;5120002;27;20512;-41
2022/12/13 02:51:43;;;;;;;48.58;25.17;;;-4.40;99.90;;;;;;5119091;27;20039;-41
2022/12/13 02:54:08;;;;;;;44.83;23.85;;;-4.50;99.90;;;;;;5119407;27;20050;-41
2022/12/13 02:56:34;;;;;;;49.08;26.52;;;-4.50;99.90;;;;;;5123698;27;20037;-41
2022/12/13 02:59:06;;;;;;;52.97;26.10;;;-4.50;99.90;;;;;;5131008;27;20050;-43
2022/12/13 03:01:48;;;;;;;46.15;26.77;;;-4.50;99.90;;;;;;5119379;27;20050;-41
2022/12/13 03:04:26;;;;;;;44.60;23.15;;;-4.50;99.90;;;;;;5113962;27;20058;-44
2022/12/13 03:07:04;;;;;;;45.60;22.45;;;-4.50;99.90;;;;;;5139616;27;20062;-41
2022/12/13 03:09:52;;;;;;;41.15;24.00;;;-4.60;99.90;;;;;;5118438;27;20078;-42
2022/12/13 03:15:24;;;;;;;40.22;22.02;;;-4.50;99.90;;;;;;5119103;27;20110;-41
2022/12/13 03:18:01;;;;;;;48.33;26.85;;;-4.50;99.90;;;;;;5124678;27;20057;-40
2022/12/13 03:20:28;;;;;;;39.88;22.35;;;-4.60;99.90;;;;;;5121926;27;20055;-40
2022/12/13 03:22:55;;;;;;;45.17;25.05;;;-4.50;99.90;;;;;;5096466;27;20058;-42
2022/12/13 03:25:23;;;;;;;42.95;25.70;;;-4.60;99.90;;;;;;5133443;27;20464;-45
2022/12/13 03:27:49;;;;;;;41.05;24.27;;;-4.60;99.90;;;;;;5139520;27;20413;-43
2022/12/13 03:30:15;;;;;;;39.28;22.65;;;-4.60;99.90;;;;;;5139425;27;20045;-41
2022/12/13 03:32:40;;;;;;;42.72;23.48;;;-4.60;99.90;;;;;;5138853;27;20404;-44
2022/12/13 03:35:07;;;;;;;40.00;22.80;;;-4.60;99.90;;;;;;5118399;27;20420;-42
2022/12/13 03:37:32;;;;;;;41.80;23.20;;;-4.60;99.90;;;;;;5118153;27;20043;-42
2022/12/13 03:39:58;;;;;;;51.50;27.23;;;-4.60;99.90;;;;;;5119286;27;20887;-40
2022/12/13 03:42:24;;;;;;;48.20;26.77;;;-4.70;99.90;;;;;;5117667;27;20443;-42
2022/12/13 03:44:50;;;;;;;47.15;25.67;;;-4.60;99.90;;;;;;5118302;27;20087;-41
2022/12/13 03:47:16;;;;;;;45.92;25.67;;;-4.60;99.90;;;;;;5118223;27;20051;-43
2022/12/13 03:49:42;;;;;;;43.80;25.27;;;-4.60;99.90;;;;;;5118320;27;20401;-41
2022/12/13 03:52:07;;;;;;;41.15;23.63;;;-4.60;99.90;;;;;;5099554;27;20061;-39
2022/12/13 03:54:33;;;;;;;42.67;22.48;;;-4.60;99.90;;;;;;5118181;27;20642;-42
2022/12/13 03:56:59;;;;;;;40.17;23.75;;;-4.50;99.90;;;;;;5100396;27;20043;-43
2022/12/13 03:59:26;;;;;;;39.38;23.70;;;-4.50;99.90;;;;;;5100763;27;20440;-41
2022/12/13 04:01:51;;;;;;;37.30;22.08;;;-4.50;99.90;;;;;;5124834;27;20113;-41
2022/12/13 04:04:17;;;;;;;39.58;24.58;;;-4.60;99.90;;;;;;5124944;27;20466;-42
2022/12/13 04:06:43;;;;;;;35.55;22.05;;;-4.50;99.90;;;;;;5132177;27;20042;-40
2022/12/13 04:09:08;;;;;;;43.63;23.05;;;-4.60;99.90;;;;;;5118526;27;20043;-40
2022/12/13 04:14:18;;;;;;;39.08;22.83;;;-4.60;99.90;;;;;;5135134;27;20304;-39
2022/12/13 04:16:44;;;;;;;39.95;23.48;;;-4.60;99.90;;;;;;5118207;27;20038;-41
2022/12/13 04:19:10;;;;;;;43.30;24.45;;;-4.70;99.90;;;;;;5117663;27;20381;-43
2022/12/13 04:21:36;;;;;;;40.65;24.45;;;-4.60;99.90;;;;;;5117627;27;20043;-42
2022/12/13 04:24:01;;;;;;;43.55;25.98;;;-4.60;99.90;;;;;;5116635;27;20134;-41
2022/12/13 04:26:28;;;;;;;39.22;24.08;;;-4.60;99.90;;;;;;5118077;27;20675;-40
2022/12/13 04:28:53;;;;;;;40.20;22.65;;;-4.60;99.90;;;;;;5117430;27;20046;-40
2022/12/13 04:31:19;;;;;;;40.38;22.80;;;-4.60;99.90;;;;;;5117576;27;20550;-41
2022/12/13 04:33:45;;;;;;;43.17;22.98;;;-4.60;99.90;;;;;;5120454;27;20050;-41
2022/12/13 04:36:10;;;;;;;41.67;25.13;;;-4.70;99.90;;;;;;5138445;27;20039;-44
2022/12/13 04:38:36;;;;;;;42.28;24.98;;;-4.60;99.90;;;;;;5134845;27;20486;-41
2022/12/13 04:41:07;;;;;;;45.20;24.67;;;-4.60;99.90;;;;;;5117162;27;20050;-43
2022/12/13 04:43:33;;;;;;;42.25;22.90;;;-4.70;99.90;;;;;;5116891;27;20602;-43
2022/12/13 04:45:59;;;;;;;41.55;24.63;;;-4.60;99.90;;;;;;5129463;27;20123;-42
2022/12/13 04:48:24;;;;;;;42.72;24.90;;;-4.60;99.90;;;;;;5134838;27;20043;-40
2022/12/13 04:50:50;;;;;;;41.35;25.52;;;-4.60;99.90;;;;;;5127870;27;20050;-42
2022/12/13 04:53:16;;;;;;;41.97;25.17;;;-4.60;99.90;;;;;;5119940;27;20087;-41
2022/12/13 04:55:41;;;;;;;42.95;24.60;;;-4.70;99.90;;;;;;5119030;27;20050;-40
2022/12/13 04:58:07;;;;;;;42.50;24.98;;;-4.60;99.90;;;;;;5099570;27;21587;-41
2022/12/13 05:00:33;;;;;;;41.30;24.15;;;-4.60;99.90;;;;;;5116018;27;20126;-41
2022/12/13 05:02:58;;;;;;;41.15;23.45;;;-4.60;99.90;;;;;;5115378;27;20062;-39
2022/12/13 05:05:24;;;;;;;39.65;23.98;;;-4.70;99.90;;;;;;5115648;27;20051;-42
2022/12/13 05:07:49;;;;;;;43.30;23.77;;;-4.70;99.90;;;;;;5116113;27;20146;-41
2022/12/13 05:10:15;;;;;;;42.42;24.15;;;-4.70;99.90;;;;;;5125958;27;20042;-43
2022/12/13 05:12:41;;;;;;;38.90;23.20;;;-4.80;99.90;;;;;;5124651;27;20059;-41
2022/12/13 05:15:07;;;;;;;37.92;23.55;;;-4.80;99.90;;;;;;5108924;27;20047;-43
2022/12/13 05:17:33;;;;;;;37.47;21.63;;;-4.80;99.90;;;;;;5119415;27;20046;-42
2022/12/13 05:19:59;;;;;;;42.90;23.65;;;-4.70;99.90;;;;;;5138189;27;20051;-42
2022/12/13 05:22:25;;;;;;;36.38;21.63;;;-4.70;99.90;;;;;;5122956;27;20046;-42
2022/12/13 05:24:51;;;;;;;34.80;22.45;;;-4.70;99.90;;;;;;5126927;27;20153;-41
2022/12/13 05:27:17;;;;;;;39.55;22.70;;;-4.70;99.90;;;;;;5116681;27;20111;-43
2022/12/13 05:29:43;;;;;;;37.42;21.45;;;-4.70;99.90;;;;;;5127241;27;20046;-40
2022/12/13 05:32:08;;;;;;;34.42;20.48;;;-4.70;99.90;;;;;;5133305;27;20046;-42
2022/12/13 05:34:34;;;;;;;42.75;23.50;;;-4.80;99.90;;;;;;5126917;27;20058;-41
2022/12/13 05:37:00;;;;;;;36.25;21.98;;;-4.80;99.90;;;;;;5120099;27;20468;-42
2022/12/13 05:39:26;;;;;;;38.00;22.63;;;-4.80;99.90;;;;;;5116381;27;20204;-41
2022/12/13 05:41:53;;;;;;;41.03;23.35;;;-4.80;99.90;;;;;;5111637;27;20043;-40
2022/12/13 05:44:18;;;;;;;41.38;22.92;;;-4.80;99.90;;;;;;5116319;27;20544;-40
2022/12/13 05:46:44;;;;;;;42.00;22.90;;;-4.90;99.90;;;;;;5117125;27;20050;-42
2022/12/13 05:49:10;;;;;;;42.90;23.15;;;-4.90;99.90;;;;;;5108748;27;20683;-40
2022/12/13 05:51:35;;;;;;;40.13;23.48;;;-4.90;99.90;;;;;;5136909;27;20051;-42
2022/12/13 05:54:02;;;;;;;38.05;22.50;;;-4.90;99.90;;;;;;5120569;27;20356;-41
2022/12/13 05:56:27;;;;;;;38.47;21.77;;;-4.90;99.90;;;;;;5101011;27;20058;-40
2022/12/13 05:58:53;;;;;;;41.17;22.88;;;-5.00;99.90;;;;;;5116359;27;20047;-41
2022/12/13 06:01:19;;;;;;;43.22;23.95;;;-5.00;99.90;;;;;;5083582;27;20059;-40
2022/12/13 06:03:45;;;;;;;39.42;23.27;;;-5.00;99.90;;;;;;5127414;27;20039;-41
2022/12/13 06:06:11;;;;;;;41.78;23.73;;;-5.00;99.90;;;;;;5116110;27;20107;-42
2022/12/13 06:08:37;;;;;;;40.67;23.48;;;-4.90;99.90;;;;;;5116273;27;20051;-40
2022/12/13 06:11:04;;;;;;;41.25;23.15;;;-4.90;99.90;;;;;;5118645;27;20333;-43
2022/12/13 06:13:30;;;;;;;47.28;25.10;;;-5.00;99.90;;;;;;5117719;27;20513;-42
2022/12/13 06:16:01;;;;;;;41.70;23.73;;;-5.00;99.90;;;;;;5119785;27;21151;-42
2022/12/13 06:18:28;;;;;;;38.88;22.92;;;-5.10;99.90;;;;;;5108295;28;20055;-41
2022/12/13 06:21:03;;;;;;;44.42;25.50;;;-5.10;99.90;;;;;;5096352;28;20054;-41
2022/12/13 06:23:30;;;;;;;42.08;22.95;;;-5.10;99.90;;;;;;5116209;27;20047;-42
2022/12/13 06:25:56;;;;;;;39.25;21.77;;;-5.10;99.90;;;;;;5121834;27;20130;-44
2022/12/13 06:28:21;;;;;;;39.42;22.95;;;-5.10;99.90;;;;;;5124471;27;20524;-41
2022/12/13 06:30:51;;;;;;;46.03;25.80;;;-5.10;99.90;;;;;;5115599;27;20152;-41
2022/12/13 06:33:20;;;;;;;46.50;27.33;;;-5.00;99.90;;;;;;5115502;27;20051;-41
2022/12/13 06:35:46;;;;;;;41.03;23.77;;;-5.00;99.90;;;;;;5115724;27;20039;-42
2022/12/13 06:38:12;;;;;;;42.97;24.98;;;-5.00;99.90;;;;;;5116730;27;20123;-40
2022/12/13 06:40:38;;;;;;;44.85;24.85;;;-5.10;99.90;;;;;;5096892;28;20050;-41
2022/12/13 06:43:04;;;;;;;50.05;30.85;;;-5.10;99.90;;;;;;5115852;27;20051;-42
2022/12/13 06:45:30;;;;;;;54.78;32.72;;;-5.10;99.90;;;;;;5137103;27;20054;-42
2022/12/13 06:47:56;;;;;;;60.42;33.05;;;-5.00;99.90;;;;;;5137432;27;20575;-42
2022/12/13 06:50:22;;;;;;;49.85;29.88;;;-5.00;99.90;;;;;;5130390;27;20058;-43
2022/12/13 06:52:48;;;;;;;38.72;24.10;;;-5.00;99.90;;;;;;5122685;27;20048;-43
2022/12/13 06:55:14;;;;;;;47.92;28.25;;;-5.00;99.90;;;;;;5131213;27;20054;-40
2022/12/13 06:57:40;;;;;;;52.97;30.60;;;-5.00;99.90;;;;;;5116232;27;20100;-42
2022/12/13 07:00:06;;;;;;;76.32;42.13;;;-5.00;99.90;;;;;;5129627;27;20134;-40
2022/12/13 07:02:32;;;;;;;46.97;29.48;;;-5.00;99.90;;;;;;5127864;27;20086;-42
2022/12/13 07:04:57;;;;;;;44.92;23.55;;;-5.00;99.90;;;;;;5122950;27;20046;-40
2022/12/13 07:07:25;;;;;;;44.03;23.70;;;-5.00;99.90;;;;;;5136802;27;20046;-39
2022/12/13 07:09:51;;;;;;;44.10;26.70;;;-5.00;99.90;;;;;;5116691;27;20470;-41
2022/12/13 07:12:18;;;;;;;45.17;27.25;;;-5.00;99.90;;;;;;5121828;27;20806;-40
2022/12/13 07:14:43;;;;;;;51.67;29.95;;;-5.00;99.90;;;;;;5126153;27;20151;-41
2022/12/13 07:17:09;;;;;;;49.28;29.25;;;-5.00;99.90;;;;;;5140025;27;20042;-42
2022/12/13 07:19:35;;;;;;;43.90;26.50;;;-5.00;99.90;;;;;;5100537;27;20082;-40
2022/12/13 07:22:01;;;;;;;47.15;27.20;;;-5.00;99.90;;;;;;5132004;27;20074;-41
2022/12/13 07:24:26;;;;;;;42.00;26.30;;;-5.00;99.90;;;;;;5133441;27;20043;-41
2022/12/13 07:26:52;;;;;;;49.22;28.45;;;-5.00;99.90;;;;;;5113836;27;20057;-41
2022/12/13 07:29:18;;;;;;;65.25;37.03;;;-5.00;99.90;;;;;;5120957;27;20050;-40
2022/12/13 07:31:43;;;;;;;53.97;35.30;;;-5.00;99.90;;;;;;5138755;27;20056;-42
2022/12/13 07:34:09;;;;;;;43.05;25.83;;;-4.90;99.90;;;;;;5139306;27;20047;-41
2022/12/13 07:36:35;;;;;;;43.47;25.08;;;-5.00;99.90;;;;;;5126362;27;20110;-39
2022/12/13 07:39:00;;;;;;;44.88;24.40;;;-5.00;99.90;;;;;;5114290;27;20051;-42
2022/12/13 07:41:26;;;;;;;40.92;24.83;;;-5.00;99.90;;;;;;5131947;27;20441;-42
2022/12/13 07:43:52;;;;;;;43.97;25.02;;;-5.10;99.90;;;;;;5125064;27;20713;-41
2022/12/13 07:46:18;;;;;;;42.60;24.85;;;-5.00;99.90;;;;;;5120786;27;20095;-43
2022/12/13 07:48:44;;;;;;;45.35;26.70;;;-5.10;99.90;;;;;;5100414;27;20465;-43
2022/12/13 07:51:13;;;;;;;38.55;24.88;;;-5.10;99.90;;;;;;5117788;27;20131;-41
2022/12/13 07:53:40;;;;;;;44.47;25.48;;;-5.10;99.90;;;;;;5086003;27;20445;-41
2022/12/13 07:56:10;;;;;;;43.08;26.13;;;-5.10;99.90;;;;;;5099663;27;20485;-41
2022/12/13 07:58:37;;;;;;;47.05;27.95;;;-5.10;99.90;;;;;;5106567;27;20115;-42
2022/12/13 08:01:07;;;;;;;45.13;26.38;;;-5.10;99.90;;;;;;5098736;27;20047;-42
2022/12/13 08:03:34;;;;;;;41.28;25.60;;;-5.10;99.90;;;;;;5118153;27;20047;-45
2022/12/13 08:06:04;;;;;;;43.63;24.70;;;-5.00;99.90;;;;;;5118513;27;20049;-43
2022/12/13 08:08:30;;;;;;;48.00;26.90;;;-5.00;99.90;;;;;;5118644;27;20051;-43
2022/12/13 08:11:00;;;;;;;46.58;26.02;;;-5.00;99.90;;;;;;5119408;27;20503;-40
2022/12/13 08:13:26;;;;;;;46.53;25.48;;;-5.00;99.90;;;;;;5128109;27;20046;-43
2022/12/13 08:16:00;;;;;;;43.92;25.38;;;-5.00;99.90;;;;;;5123127;27;20216;-40
2022/12/13 08:18:27;;;;;;;45.42;26.50;;;-5.00;99.90;;;;;;5132444;27;20089;-43
2022/12/13 08:20:57;;;;;;;49.42;28.00;;;-4.90;99.90;;;;;;5122914;27;20926;-41
2022/12/13 08:23:22;;;;;;;54.60;27.52;;;-4.80;99.90;;;;;;5124741;27;20099;-42
2022/12/13 08:25:53;;;;;;;45.97;27.73;;;-4.70;99.90;;;;;;5124683;27;20927;-40
2022/12/13 08:28:19;;;;;;;51.03;27.55;;;-4.70;99.90;;;;;;5125527;27;20066;-40
2022/12/13 08:30:45;;;;;;;50.40;27.67;;;-4.70;99.90;;;;;;5107820;27;20577;-44
2022/12/13 08:33:11;;;;;;;50.35;28.13;;;-4.70;99.90;;;;;;5123040;27;20109;-42
2022/12/13 08:35:37;;;;;;;47.47;28.55;;;-4.70;99.90;;;;;;5125947;27;20643;-42
2022/12/13 08:38:03;;;;;;;46.25;26.77;;;-4.70;99.90;;;;;;5127604;27;20057;-45
2022/12/13 08:40:28;;;;;;;47.47;28.35;;;-4.70;99.90;;;;;;5126906;27;20043;-45
2022/12/13 08:42:54;;;;;;;45.35;27.48;;;-4.60;99.90;;;;;;5126487;27;20461;-41
2022/12/13 08:45:22;;;;;;;51.30;28.88;;;-4.60;99.90;;;;;;5087512;27;20043;-42
2022/12/13 08:47:48;;;;;;;48.83;26.67;;;-4.60;99.90;;;;;;5125460;27;20400;-41
2022/12/13 08:50:14;;;;;;;50.20;29.77;;;-4.50;99.90;;;;;;5127607;27;20070;-43
2022/12/13 08:52:41;;;;;;;47.05;27.23;;;-4.40;99.90;;;;;;5126912;27;20058;-41
2022/12/13 08:55:09;;;;;;;51.90;27.70;;;-4.40;99.90;;;;;;5132444;27;20082;-43
2022/12/13 08:57:36;;;;;;;46.13;27.25;;;-4.30;99.90;;;;;;5093538;27;20046;-44
2022/12/13 09:00:07;;;;;;;53.70;28.92;;;-4.30;99.90;;;;;;5123686;27;20077;-42
2022/12/13 09:02:32;;;;;;;45.80;27.10;;;-4.20;99.90;;;;;;5104635;27;20047;-42
2022/12/13 09:04:58;;;;;;;49.85;28.38;;;-4.20;99.90;;;;;;5098611;27;20050;-41
2022/12/13 09:07:24;;;;;;;52.08;30.23;;;-4.10;99.90;;;;;;5129717;27;20117;-41
2022/12/13 09:09:49;;;;;;;47.55;29.60;;;-4.00;99.90;;;;;;5116850;27;20039;-45
2022/12/13 09:12:15;;;;;;;49.35;29.20;;;-4.00;99.90;;;;;;5105535;27;20159;-41
2022/12/13 09:14:41;;;;;;;51.35;30.85;;;-3.90;99.90;;;;;;5117540;27;20047;-43
2022/12/13 09:17:07;;;;;;;51.88;31.73;;;-3.80;99.90;;;;;;5098680;27;20394;-40
2022/12/13 09:19:32;;;;;;;53.72;30.42;;;-3.80;99.90;;;;;;5116799;27;20047;-43
2022/12/13 09:21:58;;;;;;;54.30;30.70;;;-3.70;99.90;;;;;;5132542;27;20361;-40
2022/12/13 09:24:24;;;;;;;55.25;31.23;;;-3.70;99.90;;;;;;5115289;27;20050;-41
2022/12/13 09:26:50;;;;;;;57.72;30.77;;;-3.60;99.90;;;;;;5136467;27;20472;-41
2022/12/13 09:29:16;;;;;;;53.78;31.20;;;-3.50;99.90;;;;;;5116775;27;20042;-41
2022/12/13 09:31:42;;;;;;;55.65;32.45;;;-3.50;99.90;;;;;;5116208;27;20087;-41
2022/12/13 09:34:09;;;;;;;52.05;30.77;;;-3.40;99.90;;;;;;5130067;27;20066;-40
2022/12/13 09:36:34;;;;;;;60.90;34.40;;;-3.30;99.90;;;;;;5136210;27;20314;-41
2022/12/13 09:39:00;;;;;;;57.53;32.13;;;-3.30;99.90;;;;;;5132992;27;20526;-43
2022/12/13 09:41:33;;;;;;;59.03;33.22;;;-3.20;99.90;;;;;;5132736;27;20062;-45
2022/12/13 09:44:04;;;;;;;;;;;-3.20;99.90;;;;;;5114981;27;20447;-42
2022/12/13 09:46:34;;;;;;;70.60;37.03;;;-3.10;99.90;;;;;;5129424;27;19967;-42
2022/12/13 09:49:03;;;;;;;71.45;38.30;;;-3.10;99.90;;;;;;5097786;27;20306;-40
2022/12/13 09:51:32;;;;;;;72.30;39.88;;;-3.00;99.90;;;;;;5115460;27;20039;-43
2022/12/13 09:53:59;;;;;;;60.38;35.15;;;-3.00;99.90;;;;;;5115260;27;20547;-40
2022/12/13 09:56:24;;;;;;;65.10;37.42;;;-2.90;99.90;;;;;;5116366;27;20062;-42
2022/12/13 09:58:52;;;;;;;57.92;33.58;;;-2.90;99.90;;;;;;5115783;27;20047;-41
2022/12/13 10:01:19;;;;;;;56.55;33.35;;;-2.80;99.90;;;;;;5114833;27;20600;-40
2022/12/13 10:03:54;;;;;;;55.15;32.38;;;-2.80;99.90;;;;;;5096339;28;20065;-41
2022/12/13 10:06:27;;;;;;;55.78;32.10;;;-2.70;99.90;;;;;;5123524;27;20498;-42
2022/12/13 10:08:59;;;;;;;55.05;32.75;;;-2.80;99.90;;;;;;5124150;27;20593;-40
2022/12/13 10:11:26;;;;;;;64.50;35.78;;;-2.70;99.90;;;;;;5116702;27;20039;-41
2022/12/13 10:14:17;;;;;;;54.28;33.00;;;-2.70;99.90;;;;;;5136377;27;20038;-43
2022/12/13 10:16:48;;;;;;;57.63;32.38;;;-2.60;99.90;;;;;;5115154;27;20393;-41
2022/12/13 10:19:18;;;;;;;54.80;33.97;;;-2.60;99.90;;;;;;5133551;27;20673;-40
2022/12/13 10:21:45;;;;;;;56.08;33.15;;;-2.50;99.90;;;;;;5081016;28;20050;-44
2022/12/13 10:24:17;;;;;;;56.22;31.65;;;-2.50;99.90;;;;;;5129455;27;20689;-41
2022/12/13 10:26:43;;;;;;;58.25;33.20;;;-2.50;99.90;;;;;;5128663;27;20549;-41
2022/12/13 10:29:09;;;;;;;60.60;33.25;;;-2.40;99.90;;;;;;5117584;27;20082;-40
2022/12/13 10:31:50;;;;;;;61.47;34.92;;;-2.40;99.90;;;;;;5115418;27;20039;-41
2022/12/13 10:34:29;;;;;;;53.65;33.63;;;-2.40;99.90;;;;;;5116273;27;20146;-41
2022/12/13 10:36:55;;;;;;;54.20;34.65;;;-2.40;99.90;;;;;;5134142;27;20422;-42
2022/12/13 10:39:39;;;;;;;57.45;34.28;;;-2.30;99.90;;;;;;5117053;27;20484;-42
2022/12/13 10:42:31;;;;;;;56.72;33.63;;;-2.30;99.90;;;;;;5115040;27;20086;-41
2022/12/13 10:45:15;;;;;;;59.25;34.83;;;-2.30;99.90;;;;;;5097987;27;20096;-43
2022/12/13 10:47:44;;;;;;;58.55;34.97;;;-2.20;99.90;;;;;;5101309;27;20094;-41
2022/12/13 10:50:27;;;;;;;55.45;33.67;;;-2.10;99.90;;;;;;5106814;27;20050;-40
2022/12/13 10:52:54;;;;;;;57.30;35.33;;;-2.10;99.90;;;;;;5118762;27;20316;-44
2022/12/13 10:55:52;;;;;;;60.85;34.22;;;-2.10;99.90;;;;;;5130504;27;20058;-42
2022/12/13 10:58:19;;;;;;;60.42;33.92;;;-2.10;99.90;;;;;;5119131;27;20316;-40
2022/12/13 11:00:47;;;;;;;60.08;35.20;;;-2.00;99.90;;;;;;5119429;27;20422;-40
2022/12/13 11:03:30;;;;;;;54.83;33.63;;;-2.00;99.90;;;;;;5119016;27;20373;-41
2022/12/13 11:06:16;;;;;;;56.25;35.40;;;-2.00;99.90;;;;;;5118488;27;20151;-41
2022/12/13 11:08:43;;;;;;;55.47;34.25;;;-1.90;99.90;;;;;;5110555;27;20058;-40
2022/12/13 11:11:11;;;;;;;59.17;36.10;;;-1.90;99.90;;;;;;5122570;27;20043;-41
2022/12/13 11:13:51;;;;;;;59.38;35.00;;;-1.80;99.90;;;;;;5119429;27;20047;-50
2022/12/13 11:16:28;;;;;;;62.90;35.88;;;-1.80;99.90;;;;;;5117050;27;20081;-41
2022/12/13 11:18:58;;;;;;;62.08;36.70;;;-1.80;99.90;;;;;;5120160;27;20075;-41
2022/12/13 11:21:29;;;;;;;59.70;34.45;;;-1.70;99.90;;;;;;5139237;27;20047;-42
2022/12/13 11:23:59;;;;;;;60.63;37.38;;;-1.70;99.90;;;;;;5118740;27;20050;-45
2022/12/13 11:26:27;;;;;;;61.20;36.75;;;-1.60;99.90;;;;;;5127202;27;20121;-42
2022/12/13 11:29:18;;;;;;;90.68;47.88;;;-1.60;99.90;;;;;;5118181;27;20505;-41
2022/12/13 11:32:06;;;;;;;67.15;36.88;;;-1.60;99.90;;;;;;5120693;27;20050;-43
2022/12/13 11:35:02;;;;;;;52.00;33.65;;;-1.50;99.90;;;;;;5108696;27;20070;-43
2022/12/13 11:38:00;;;;;;;54.85;33.42;;;-1.40;99.90;;;;;;5122082;27;20035;-41
2022/12/13 11:40:40;;;;;;;53.15;33.05;;;-1.50;99.90;;;;;;5120271;27;20061;-40
2022/12/13 11:43:23;;;;;;;57.97;31.88;;;-1.40;99.90;;;;;;5117780;27;20510;-41
2022/12/13 11:45:58;;;;;;;51.77;32.83;;;-1.30;99.90;;;;;;5118923;27;20146;-41
2022/12/13 11:48:48;;;;;;;58.38;32.28;;;-1.30;99.90;;;;;;5118246;27;20116;-42
2022/12/13 11:51:21;;;;;;;55.70;32.72;;;-1.30;99.90;;;;;;5117924;27;20051;-41
2022/12/13 11:54:09;;;;;;;50.80;32.03;;;-1.20;99.90;;;;;;5117629;27;20065;-41
2022/12/13 11:56:42;;;;;;;49.90;30.17;;;-1.20;99.90;;;;;;5117294;27;20385;-41
2022/12/13 11:59:32;;;;;;;54.10;31.02;;;-1.20;99.90;;;;;;5115539;27;20047;-43
2022/12/13 12:02:10;;;;;;;54.03;30.75;;;-1.20;99.90;;;;;;5122509;27;20073;-41
2022/12/13 12:04:47;;;;;;;53.35;30.92;;;-1.20;99.90;;;;;;5120518;27;20055;-41
2022/12/13 12:07:16;;;;;;;41.78;27.33;;;-1.10;99.90;;;;;;5129407;27;20050;-50
2022/12/13 12:09:54;;;;;;;48.00;28.63;;;-1.00;99.90;;;;;;5103632;27;20039;-41
2022/12/13 12:12:29;;;;;;;42.40;26.63;;;-1.10;99.90;;;;;;5127683;27;20102;-43
2022/12/13 12:15:13;;;;;;;44.72;26.98;;;-1.00;99.90;;;;;;5122543;27;20050;-44
2022/12/13 12:17:39;;;;;;;49.22;28.17;;;-1.00;99.90;;;;;;5102568;27;20082;-42
2022/12/13 12:20:10;;;;;;;41.28;27.35;;;-0.90;99.90;;;;;;5126179;27;20177;-42
2022/12/13 12:22:51;;;;;;;44.75;26.90;;;-1.00;99.90;;;;;;5130277;27;20047;-40
2022/12/13 12:25:51;;;;;;;41.50;27.02;;;-0.90;99.90;;;;;;5127328;27;20047;-42
2022/12/13 12:28:37;;;;;;;42.75;26.25;;;-0.80;99.90;;;;;;5126861;27;20069;-41
2022/12/13 12:31:03;;;;;;;41.60;26.25;;;-0.90;99.90;;;;;;5119621;27;20063;-43
2022/12/13 12:33:47;;;;;;;42.95;25.98;;;-0.80;99.90;;;;;;5123539;27;20480;-45
2022/12/13 12:36:39;;;;;;;42.13;27.00;;;-0.80;99.90;;;;;;5124337;27;20471;-42
2022/12/13 12:39:10;;;;;;;38.22;24.83;;;-0.70;99.90;;;;;;5023946;28;20060;-44
2022/12/13 12:41:50;;;;;;;39.65;25.85;;;-0.70;99.90;;;;;;5023049;28;20094;-42
2022/12/13 12:44:18;;;;;;;42.55;27.02;;;-0.70;99.90;;;;;;5023159;28;20149;-43
2022/12/13 12:47:17;;;;;;;41.65;26.05;;;-0.60;99.90;;;;;;5024510;28;20041;-42